Klassy Kady — WDG6170 — position and weather

sailwx.info

Track history (hours):
 
Tides and Currents Weather Stations Pressure Air Temp Water Temp Dewpoint Dewpoint Depression Visibility Wind Speed Wind Dir Waves Ship Positions

Klassy Kady

Owner: CSS Marine Services LLC, JENSEN BEACH, FL. More information available from US FCC via Universal Licensing System and Coast Guard Vessel Documentation Center.

Last reported at 2017-Sep-16 14:17 UTC. Time now 2017-Sep-19 20:29 UTC.
Position N 39°32' W 075°50'.

Length 17 m.

Type: Pleasure craft. MMSI: 367554230.

Date/timePositionNaut miles runAvg speedWind from/ knotsBaromVisibWave heightAir tempDewpointWater temp
2017-Sep-16 14:17N 39°32' W 075°50'2 7.7
2017-Sep-16 14:00N 39°32' W 075°47'4 8.1
2017-Sep-16 13:30N 39°33' W 075°42'4 7.4
2017-Sep-16 13:00N 39°33' W 075°37'3 6.7
2017-Sep-16 12:30N 39°33' W 075°33'3 6.3
2017-Sep-16 12:00N 39°30' W 075°34'0 0.0
2017-Sep-16 11:30N 39°30' W 075°34'0 0.0
2017-Sep-16 10:57N 39°30' W 075°34'0 0.0
2017-Sep-16 10:30N 39°30' W 075°34'0 0.0
2017-Sep-16 10:00N 39°30' W 075°34'0 0.0
2017-Sep-16 09:30N 39°30' W 075°34'0 0.0
2017-Sep-16 08:57N 39°30' W 075°34'0 0.0
2017-Sep-16 08:30N 39°30' W 075°34'0 0.0
2017-Sep-16 08:00N 39°30' W 075°34'0 0.0
2017-Sep-16 07:30N 39°30' W 075°34'0 0.0
2017-Sep-16 07:00N 39°30' W 075°34'0 0.0
2017-Sep-16 06:30N 39°30' W 075°34'0 0.0
2017-Sep-16 06:00N 39°30' W 075°34'0 0.0
2017-Sep-16 05:30N 39°30' W 075°34'0 0.0
2017-Sep-16 05:00N 39°30' W 075°34'0 0.0
2017-Sep-16 04:30N 39°30' W 075°34'0 0.0
2017-Sep-16 03:54N 39°30' W 075°34'0 0.0
2017-Sep-16 03:30N 39°30' W 075°34'0 0.0
2017-Sep-16 03:00N 39°30' W 075°34'0 0.0
2017-Sep-16 02:30N 39°30' W 075°34'0 0.0
2017-Sep-16 02:00N 39°30' W 075°34'0 0.0
2017-Sep-16 01:30N 39°30' W 075°34'0 0.0
2017-Sep-16 01:00N 39°30' W 075°34'0 0.0
2017-Sep-16 00:30N 39°30' W 075°34'0 0.0
2017-Sep-16 00:00N 39°30' W 075°34'0 0.0
2017-Sep-15 23:30N 39°30' W 075°34'0 0.0
2017-Sep-15 23:00N 39°30' W 075°34'0 0.0
2017-Sep-15 22:30N 39°30' W 075°34'0 0.0
2017-Sep-15 22:00N 39°30' W 075°34'0 0.0
2017-Sep-15 21:27N 39°30' W 075°34'0 0.0
2017-Sep-15 21:00N 39°30' W 075°34'0 0.1
2017-Sep-15 20:30N 39°30' W 075°34'3 5.6
2017-Sep-15 20:00N 39°28' W 075°34'4 7.6
2017-Sep-15 19:30N 39°25' W 075°30'3 6.9
2017-Sep-15 19:00N 39°22' W 075°27'4 6.5
2017-Sep-15 18:26N 39°20' W 075°24'45 1.3
2017-Sep-14 08:06N 39°23' W 074°26'0 0.0
2017-Sep-14 07:57N 39°23' W 074°26'0 0.0
2017-Sep-14 07:24N 39°23' W 074°26'0 0.0
2017-Sep-14 06:57N 39°23' W 074°26'24 1.8
2017-Sep-13 17:17N 39°42' W 074°05'57 2.9
2017-Sep-12 21:59N 40°38' W 074°03'  
Track history (hours):
 
Tides and Currents Weather Stations Pressure Air Temp Water Temp Dewpoint Dewpoint Depression Visibility Wind Speed Wind Dir Waves Ship Positions

Klassy Kady

Owner: CSS Marine Services LLC, JENSEN BEACH, FL. More information available from US FCC via Universal Licensing System and Coast Guard Vessel Documentation Center.

Last reported at 2017-Sep-16 14:17 UTC. Time now 2017-Sep-19 20:29 UTC.
Position N 39°32' W 075°50'.

Length 17 m.

Type: Pleasure craft. MMSI: 367554230.

Date/timePositionNaut miles runAvg speedWind from/ knotsBaromVisibWave heightAir tempDewpointWater temp
2017-Sep-16 14:17N 39°32' W 075°50'2 7.7
2017-Sep-16 14:00N 39°32' W 075°47'4 8.1
2017-Sep-16 13:30N 39°33' W 075°42'4 7.4
2017-Sep-16 13:00N 39°33' W 075°37'3 6.7
2017-Sep-16 12:30N 39°33' W 075°33'3 6.3
2017-Sep-16 12:00N 39°30' W 075°34'0 0.0
2017-Sep-16 11:30N 39°30' W 075°34'0 0.0
2017-Sep-16 10:57N 39°30' W 075°34'0 0.0
2017-Sep-16 10:30N 39°30' W 075°34'0 0.0
2017-Sep-16 10:00N 39°30' W 075°34'0 0.0
2017-Sep-16 09:30N 39°30' W 075°34'0 0.0
2017-Sep-16 08:57N 39°30' W 075°34'0 0.0
2017-Sep-16 08:30N 39°30' W 075°34'0 0.0
2017-Sep-16 08:00N 39°30' W 075°34'0 0.0
2017-Sep-16 07:30N 39°30' W 075°34'0 0.0
2017-Sep-16 07:00N 39°30' W 075°34'0 0.0
2017-Sep-16 06:30N 39°30' W 075°34'0 0.0
2017-Sep-16 06:00N 39°30' W 075°34'0 0.0
2017-Sep-16 05:30N 39°30' W 075°34'0 0.0
2017-Sep-16 05:00N 39°30' W 075°34'0 0.0
2017-Sep-16 04:30N 39°30' W 075°34'0 0.0
2017-Sep-16 03:54N 39°30' W 075°34'0 0.0
2017-Sep-16 03:30N 39°30' W 075°34'0 0.0
2017-Sep-16 03:00N 39°30' W 075°34'0 0.0
2017-Sep-16 02:30N 39°30' W 075°34'0 0.0
2017-Sep-16 02:00N 39°30' W 075°34'0 0.0
2017-Sep-16 01:30N 39°30' W 075°34'0 0.0
2017-Sep-16 01:00N 39°30' W 075°34'0 0.0
2017-Sep-16 00:30N 39°30' W 075°34'0 0.0
2017-Sep-16 00:00N 39°30' W 075°34'0 0.0
2017-Sep-15 23:30N 39°30' W 075°34'0 0.0
2017-Sep-15 23:00N 39°30' W 075°34'0 0.0
2017-Sep-15 22:30N 39°30' W 075°34'0 0.0
2017-Sep-15 22:00N 39°30' W 075°34'0 0.0
2017-Sep-15 21:27N 39°30' W 075°34'0 0.0
2017-Sep-15 21:00N 39°30' W 075°34'0 0.1
2017-Sep-15 20:30N 39°30' W 075°34'3 5.6
2017-Sep-15 20:00N 39°28' W 075°34'4 7.6
2017-Sep-15 19:30N 39°25' W 075°30'3 6.9
2017-Sep-15 19:00N 39°22' W 075°27'4 6.5
2017-Sep-15 18:26N 39°20' W 075°24'45 1.3
2017-Sep-14 08:06N 39°23' W 074°26'0 0.0
2017-Sep-14 07:57N 39°23' W 074°26'0 0.0
2017-Sep-14 07:24N 39°23' W 074°26'0 0.0
2017-Sep-14 06:57N 39°23' W 074°26'24 1.8
2017-Sep-13 17:17N 39°42' W 074°05'57 2.9
2017-Sep-12 21:59N 40°38' W 074°03'  

Dump ship's entire track history